RYR930 LIEE-LFMK
Flight info
| Callsign | RYR930 |
|---|---|
| Flight time | 1h 17m |
| Altitude | 38000 |
| Route | KOVAS DCT PELOS M623 LOKDU Z154 TINOT DCT AKUNU DCT KELAM DCT ORBIL |
| Aircraft | B738/M-SDE2E3FGHIRWXY/LB1 |
Departure
| Time | 2026-04-25 10:47 |
|---|---|
| Airport | Cagliari Elmas Airport (LIEE) |
Arrival
| Time | 2026-04-25 12:05 |
|---|---|
| Airport | Carcassonne Salvaza Airport (LFMK) |
| Time | Latitude | Longitude | Altitude | Speed | Heading |
|---|---|---|---|---|---|
| 2026-04-25 10:25 | 39.25289 | 9.05831 | 14 ft | 0 kts | 52° |
| 2026-04-25 10:36 | 39.25281 | 9.05817 | 14 ft | 4 kts | 52° |
| 2026-04-25 10:36 | 39.25267 | 9.05794 | 13 ft | 3 kts | 51° |
| 2026-04-25 10:36 | 39.25249 | 9.05778 | 16 ft | 4 kts | 347° |
| 2026-04-25 10:36 | 39.25229 | 9.05793 | 15 ft | 4 kts | 318° |
| 2026-04-25 10:37 | 39.25209 | 9.05816 | 15 ft | 3 kts | 318° |
| 2026-04-25 10:37 | 39.25205 | 9.05819 | 15 ft | 0 kts | 318° |
| 2026-04-25 10:38 | 39.25206 | 9.05819 | 14 ft | 0 kts | 321° |
| 2026-04-25 10:39 | 39.25211 | 9.05822 | 14 ft | 1 kts | 15° |
| 2026-04-25 10:39 | 39.25202 | 9.05839 | 17 ft | 4 kts | 145° |
| 2026-04-25 10:39 | 39.25161 | 9.05844 | 14 ft | 8 kts | 207° |
| 2026-04-25 10:39 | 39.25119 | 9.05781 | 14 ft | 11 kts | 210° |
| 2026-04-25 10:40 | 39.25045 | 9.05820 | 14 ft | 14 kts | 137° |
| 2026-04-25 10:40 | 39.24960 | 9.05919 | 14 ft | 18 kts | 138° |
| 2026-04-25 10:40 | 39.24854 | 9.06042 | 14 ft | 23 kts | 138° |
| 2026-04-25 10:40 | 39.24728 | 9.06187 | 14 ft | 26 kts | 138° |
| 2026-04-25 10:41 | 39.24591 | 9.06346 | 14 ft | 27 kts | 138° |
| 2026-04-25 10:41 | 39.24455 | 9.06505 | 14 ft | 26 kts | 138° |
| 2026-04-25 10:41 | 39.24349 | 9.06571 | 14 ft | 13 kts | 200° |
| 2026-04-25 10:41 | 39.24330 | 9.06562 | 15 ft | 0 kts | 199° |
| 2026-04-25 10:43 | 39.24328 | 9.06562 | 15 ft | 1 kts | 199° |
| 2026-04-25 10:43 | 39.24324 | 9.06560 | 17 ft | 0 kts | 199° |
| 2026-04-25 10:44 | 39.24321 | 9.06558 | 16 ft | 0 kts | 199° |
| 2026-04-25 10:45 | 39.24319 | 9.06557 | 16 ft | 1 kts | 199° |
| 2026-04-25 10:46 | 39.24296 | 9.06547 | 15 ft | 6 kts | 199° |
| 2026-04-25 10:46 | 39.24245 | 9.06519 | 17 ft | 10 kts | 217° |
| 2026-04-25 10:46 | 39.24253 | 9.06460 | 16 ft | 9 kts | 318° |
| 2026-04-25 10:46 | 39.24388 | 9.06305 | 15 ft | 55 kts | 318° |
| 2026-04-25 10:47 | 39.24847 | 9.05778 | 16 ft | 119 kts | 318° |
| 2026-04-25 10:47 | 39.25595 | 9.04910 | 53 ft | 164 kts | 317° |
| 2026-04-25 10:47 | 39.26465 | 9.03930 | 613 ft | 168 kts | 317° |
| 2026-04-25 10:47 | 39.27399 | 9.02950 | 1125 ft | 178 kts | 331° |
| 2026-04-25 10:48 | 39.28666 | 9.02706 | 1399 ft | 200 kts | 9° |
| 2026-04-25 10:48 | 39.30112 | 9.02951 | 1767 ft | 216 kts | 7° |
| 2026-04-25 10:48 | 39.31632 | 9.03157 | 2244 ft | 221 kts | 6° |
| 2026-04-25 10:48 | 39.33143 | 9.03346 | 2824 ft | 222 kts | 5° |
| 2026-04-25 10:49 | 39.34697 | 9.03524 | 3388 ft | 222 kts | 5° |
| 2026-04-25 10:49 | 39.36230 | 9.03695 | 3928 ft | 223 kts | 6° |
| 2026-04-25 10:49 | 39.37782 | 9.03861 | 4495 ft | 224 kts | 6° |
| 2026-04-25 10:49 | 39.39345 | 9.04021 | 5073 ft | 225 kts | 6° |
| 2026-04-25 10:50 | 39.40913 | 9.04181 | 5595 ft | 227 kts | 6° |
| 2026-04-25 10:50 | 39.42483 | 9.04336 | 6112 ft | 229 kts | 5° |
| 2026-04-25 10:50 | 39.44101 | 9.04496 | 6654 ft | 231 kts | 6° |
| 2026-04-25 10:50 | 39.45711 | 9.04655 | 7168 ft | 233 kts | 6° |
| 2026-04-25 10:51 | 39.47353 | 9.04852 | 7416 ft | 249 kts | 6° |
| 2026-04-25 10:51 | 39.49145 | 9.05086 | 7616 ft | 270 kts | 7° |
| 2026-04-25 10:51 | 39.51062 | 9.05339 | 8140 ft | 279 kts | 6° |
| 2026-04-25 10:51 | 39.53008 | 9.05594 | 8817 ft | 283 kts | 6° |
| 2026-04-25 10:52 | 39.54985 | 9.05851 | 9580 ft | 285 kts | 6° |
| 2026-04-25 10:52 | 39.56972 | 9.06109 | 10317 ft | 288 kts | 6° |
| 2026-04-25 10:52 | 39.58999 | 9.06372 | 10609 ft | 308 kts | 6° |
| 2026-04-25 10:52 | 39.61218 | 9.06660 | 10779 ft | 330 kts | 6° |
| 2026-04-25 10:53 | 39.63583 | 9.06934 | 10966 ft | 350 kts | 1° |
| 2026-04-25 10:53 | 39.66006 | 9.06370 | 11412 ft | 359 kts | 339° |
| 2026-04-25 10:53 | 39.68283 | 9.05090 | 12042 ft | 363 kts | 336° |
| 2026-04-25 10:53 | 39.70596 | 9.03716 | 12680 ft | 368 kts | 335° |
| 2026-04-25 10:54 | 39.72929 | 9.02312 | 13350 ft | 371 kts | 335° |
| 2026-04-25 10:54 | 39.74495 | 9.01370 | 13810 ft | 374 kts | 335° |
| 2026-04-25 10:54 | 39.77684 | 8.99462 | 14639 ft | 380 kts | 336° |
| 2026-04-25 10:54 | 39.80102 | 8.98024 | 15301 ft | 384 kts | 336° |
| 2026-04-25 10:55 | 39.82544 | 8.96577 | 15893 ft | 388 kts | 336° |
| 2026-04-25 10:55 | 39.85014 | 8.95116 | 16569 ft | 391 kts | 336° |
| 2026-04-25 10:55 | 39.87502 | 8.93647 | 17184 ft | 395 kts | 336° |
| 2026-04-25 10:55 | 39.90021 | 8.92158 | 17805 ft | 399 kts | 336° |
| 2026-04-25 10:56 | 39.92530 | 8.90676 | 18413 ft | 403 kts | 336° |
| 2026-04-25 10:56 | 39.95094 | 8.89161 | 18963 ft | 406 kts | 336° |
| 2026-04-25 10:56 | 39.97677 | 8.87632 | 19483 ft | 410 kts | 336° |
| 2026-04-25 10:56 | 40.00290 | 8.86085 | 19981 ft | 415 kts | 336° |
| 2026-04-25 10:57 | 40.02932 | 8.84520 | 20499 ft | 418 kts | 336° |
| 2026-04-25 10:57 | 40.05592 | 8.82943 | 20985 ft | 422 kts | 336° |
| 2026-04-25 10:57 | 40.08275 | 8.81350 | 21480 ft | 426 kts | 336° |
| 2026-04-25 10:57 | 40.10983 | 8.79742 | 21954 ft | 430 kts | 336° |
| 2026-04-25 10:58 | 40.13722 | 8.78112 | 22423 ft | 434 kts | 335° |
| 2026-04-25 10:58 | 40.16481 | 8.76470 | 22865 ft | 438 kts | 335° |
| 2026-04-25 10:58 | 40.19230 | 8.74832 | 23304 ft | 442 kts | 335° |
| 2026-04-25 10:58 | 40.22036 | 8.73159 | 23761 ft | 445 kts | 335° |
| 2026-04-25 10:59 | 40.24867 | 8.71469 | 24162 ft | 448 kts | 335° |
| 2026-04-25 10:59 | 40.27682 | 8.69788 | 24776 ft | 444 kts | 336° |
| 2026-04-25 10:59 | 40.30493 | 8.68107 | 25209 ft | 445 kts | 336° |
| 2026-04-25 10:59 | 40.33322 | 8.66414 | 25551 ft | 449 kts | 336° |
| 2026-04-25 11:00 | 40.36175 | 8.64705 | 25896 ft | 452 kts | 336° |
| 2026-04-25 11:00 | 40.39043 | 8.62987 | 26278 ft | 454 kts | 336° |
| 2026-04-25 11:00 | 40.41916 | 8.61262 | 26668 ft | 455 kts | 336° |
| 2026-04-25 11:00 | 40.44760 | 8.59553 | 27043 ft | 457 kts | 336° |
| 2026-04-25 11:01 | 40.47654 | 8.57813 | 27392 ft | 459 kts | 336° |
| 2026-04-25 11:01 | 40.50562 | 8.56062 | 27742 ft | 461 kts | 336° |
| 2026-04-25 11:01 | 40.53480 | 8.54304 | 28070 ft | 463 kts | 336° |
| 2026-04-25 11:01 | 40.56413 | 8.52536 | 28413 ft | 464 kts | 336° |
| 2026-04-25 11:02 | 40.59351 | 8.50762 | 28742 ft | 466 kts | 336° |
| 2026-04-25 11:02 | 40.62306 | 8.48977 | 29021 ft | 469 kts | 336° |
| 2026-04-25 11:02 | 40.65284 | 8.47176 | 29286 ft | 471 kts | 336° |
| 2026-04-25 11:02 | 40.68265 | 8.45372 | 29631 ft | 472 kts | 336° |
| 2026-04-25 11:03 | 40.71248 | 8.43564 | 30085 ft | 470 kts | 336° |
| 2026-04-25 11:03 | 40.74167 | 8.41792 | 30537 ft | 467 kts | 336° |
| 2026-04-25 11:03 | 40.77110 | 8.40005 | 30960 ft | 464 kts | 336° |
| 2026-04-25 11:03 | 40.80038 | 8.38225 | 31330 ft | 463 kts | 336° |
| 2026-04-25 11:04 | 40.82965 | 8.36445 | 31663 ft | 462 kts | 336° |
| 2026-04-25 11:04 | 40.85883 | 8.34668 | 31976 ft | 462 kts | 336° |
| 2026-04-25 11:04 | 40.88796 | 8.32892 | 32421 ft | 458 kts | 336° |
| 2026-04-25 11:04 | 40.90701 | 8.31729 | 32778 ft | 454 kts | 336° |
| 2026-04-25 11:05 | 40.94526 | 8.29393 | 33303 ft | 452 kts | 337° |
| 2026-04-25 11:05 | 40.97380 | 8.27649 | 33565 ft | 452 kts | 337° |
| 2026-04-25 11:05 | 41.00203 | 8.25922 | 33843 ft | 452 kts | 337° |
| 2026-04-25 11:05 | 41.03054 | 8.24176 | 34203 ft | 451 kts | 336° |
| 2026-04-25 11:06 | 41.05890 | 8.22436 | 34510 ft | 449 kts | 336° |
| 2026-04-25 11:06 | 41.08725 | 8.20697 | 34721 ft | 450 kts | 336° |
| 2026-04-25 11:06 | 41.11567 | 8.18952 | 34910 ft | 451 kts | 336° |
| 2026-04-25 11:06 | 41.14414 | 8.17227 | 35153 ft | 450 kts | 339° |
| 2026-04-25 11:07 | 41.17372 | 8.15922 | 35407 ft | 447 kts | 348° |
| 2026-04-25 11:07 | 41.20430 | 8.15259 | 35647 ft | 445 kts | 354° |
| 2026-04-25 11:07 | 41.23467 | 8.14815 | 35862 ft | 445 kts | 355° |
| 2026-04-25 11:07 | 41.26547 | 8.14378 | 36050 ft | 445 kts | 355° |
| 2026-04-25 11:08 | 41.29628 | 8.13923 | 36261 ft | 446 kts | 354° |
| 2026-04-25 11:08 | 41.32708 | 8.13444 | 36452 ft | 446 kts | 354° |
| 2026-04-25 11:08 | 41.35786 | 8.12949 | 36677 ft | 446 kts | 354° |
| 2026-04-25 11:08 | 41.38863 | 8.12449 | 36909 ft | 445 kts | 354° |
| 2026-04-25 11:09 | 41.41934 | 8.11951 | 37109 ft | 445 kts | 354° |
| 2026-04-25 11:09 | 41.45007 | 8.11468 | 37319 ft | 445 kts | 354° |
| 2026-04-25 11:09 | 41.48042 | 8.10998 | 37512 ft | 444 kts | 354° |
| 2026-04-25 11:09 | 41.51115 | 8.10524 | 37699 ft | 445 kts | 354° |
| 2026-04-25 11:10 | 41.54184 | 8.10049 | 37856 ft | 445 kts | 354° |
| 2026-04-25 11:10 | 41.56263 | 8.09725 | 37974 ft | 445 kts | 354° |
| 2026-04-25 11:10 | 41.60332 | 8.09090 | 38145 ft | 444 kts | 354° |
| 2026-04-25 11:11 | 41.66475 | 8.08139 | 38146 ft | 445 kts | 354° |
| 2026-04-25 11:11 | 41.72625 | 8.07192 | 38146 ft | 445 kts | 354° |
| 2026-04-25 11:12 | 41.78777 | 8.06241 | 38151 ft | 445 kts | 354° |
| 2026-04-25 11:12 | 41.84895 | 8.05294 | 38143 ft | 446 kts | 354° |
| 2026-04-25 11:13 | 41.91054 | 8.04364 | 38142 ft | 446 kts | 354° |
| 2026-04-25 11:13 | 41.94100 | 8.03607 | 38116 ft | 446 kts | 339° |
| 2026-04-25 11:13 | 41.96808 | 8.01619 | 38160 ft | 445 kts | 321° |
| 2026-04-25 11:13 | 41.98997 | 7.98690 | 38146 ft | 446 kts | 307° |
| 2026-04-25 11:14 | 42.00533 | 7.95082 | 38144 ft | 446 kts | 292° |
| 2026-04-25 11:14 | 42.02654 | 7.87294 | 38148 ft | 447 kts | 289° |
| 2026-04-25 11:15 | 42.04738 | 7.79405 | 38136 ft | 448 kts | 290° |
| 2026-04-25 11:15 | 42.06889 | 7.71526 | 38144 ft | 449 kts | 290° |
| 2026-04-25 11:16 | 42.10128 | 7.59745 | 38146 ft | 450 kts | 290° |
| 2026-04-25 11:16 | 42.12288 | 7.51844 | 38144 ft | 450 kts | 290° |
| 2026-04-25 11:17 | 42.14441 | 7.43939 | 38135 ft | 449 kts | 290° |
| 2026-04-25 11:17 | 42.16587 | 7.36037 | 38143 ft | 448 kts | 290° |
| 2026-04-25 11:18 | 42.18723 | 7.28146 | 38145 ft | 447 kts | 289° |
| 2026-04-25 11:18 | 42.20834 | 7.20323 | 38137 ft | 446 kts | 289° |
| 2026-04-25 11:19 | 42.22949 | 7.12462 | 38134 ft | 445 kts | 289° |
| 2026-04-25 11:19 | 42.25051 | 7.04622 | 38137 ft | 444 kts | 289° |
| 2026-04-25 11:20 | 42.27146 | 6.96781 | 38137 ft | 443 kts | 289° |
| 2026-04-25 11:20 | 42.29217 | 6.89009 | 38138 ft | 443 kts | 289° |
| 2026-04-25 11:21 | 42.31301 | 6.81162 | 38143 ft | 442 kts | 288° |
| 2026-04-25 11:21 | 42.33378 | 6.73316 | 38136 ft | 443 kts | 289° |
| 2026-04-25 11:22 | 42.35097 | 6.66802 | 38142 ft | 442 kts | 289° |
| 2026-04-25 11:22 | 42.37498 | 6.57676 | 38135 ft | 443 kts | 288° |
| 2026-04-25 11:23 | 42.39559 | 6.49816 | 38133 ft | 443 kts | 288° |
| 2026-04-25 11:23 | 42.41606 | 6.41992 | 38142 ft | 443 kts | 289° |
| 2026-04-25 11:24 | 42.43660 | 6.34120 | 38141 ft | 443 kts | 288° |
| 2026-04-25 11:24 | 42.45710 | 6.26235 | 38133 ft | 443 kts | 288° |
| 2026-04-25 11:25 | 42.47736 | 6.18405 | 38129 ft | 442 kts | 288° |
| 2026-04-25 11:25 | 42.49767 | 6.10536 | 38133 ft | 441 kts | 288° |
| 2026-04-25 11:26 | 42.51792 | 6.02666 | 38128 ft | 441 kts | 288° |
| 2026-04-25 11:26 | 42.53795 | 5.94858 | 38129 ft | 441 kts | 288° |
| 2026-04-25 11:27 | 42.55802 | 5.87007 | 38139 ft | 440 kts | 288° |
| 2026-04-25 11:27 | 42.57463 | 5.80484 | 38126 ft | 440 kts | 287° |
| 2026-04-25 11:28 | 42.59784 | 5.71352 | 38128 ft | 440 kts | 288° |
| 2026-04-25 11:28 | 42.61771 | 5.63498 | 38134 ft | 440 kts | 288° |
| 2026-04-25 11:29 | 42.63759 | 5.55617 | 38137 ft | 440 kts | 288° |
| 2026-04-25 11:29 | 42.65742 | 5.47729 | 38123 ft | 441 kts | 288° |
| 2026-04-25 11:30 | 42.67389 | 5.41155 | 38129 ft | 441 kts | 288° |
| 2026-04-25 11:30 | 42.69686 | 5.31965 | 38142 ft | 442 kts | 288° |
| 2026-04-25 11:31 | 42.71277 | 5.25348 | 38130 ft | 442 kts | 287° |
| 2026-04-25 11:31 | 42.73129 | 5.17337 | 38125 ft | 442 kts | 287° |
| 2026-04-25 11:32 | 42.74956 | 5.09397 | 38127 ft | 442 kts | 287° |
| 2026-04-25 11:32 | 42.76801 | 5.01393 | 38129 ft | 442 kts | 287° |
| 2026-04-25 11:33 | 42.78646 | 4.93386 | 38124 ft | 442 kts | 287° |
| 2026-04-25 11:33 | 42.79568 | 4.89378 | 37797 ft | 447 kts | 287° |
| 2026-04-25 11:33 | 42.80484 | 4.85386 | 37312 ft | 446 kts | 287° |
| 2026-04-25 11:34 | 42.81406 | 4.81360 | 36747 ft | 443 kts | 287° |
| 2026-04-25 11:34 | 42.82320 | 4.77362 | 36160 ft | 442 kts | 287° |
| 2026-04-25 11:34 | 42.83236 | 4.73350 | 35530 ft | 442 kts | 287° |
| 2026-04-25 11:34 | 42.84150 | 4.69338 | 34890 ft | 443 kts | 287° |
| 2026-04-25 11:35 | 42.85065 | 4.65316 | 34240 ft | 444 kts | 287° |
| 2026-04-25 11:35 | 42.85979 | 4.61285 | 33498 ft | 445 kts | 287° |
| 2026-04-25 11:35 | 42.86893 | 4.57252 | 32762 ft | 446 kts | 287° |
| 2026-04-25 11:35 | 42.87807 | 4.53211 | 32203 ft | 443 kts | 287° |
| 2026-04-25 11:36 | 42.88708 | 4.49220 | 31701 ft | 439 kts | 287° |
| 2026-04-25 11:36 | 42.89592 | 4.45294 | 31220 ft | 435 kts | 287° |
| 2026-04-25 11:36 | 42.90475 | 4.41369 | 30741 ft | 431 kts | 287° |
| 2026-04-25 11:36 | 42.91352 | 4.37460 | 30267 ft | 427 kts | 287° |
| 2026-04-25 11:37 | 42.92217 | 4.33601 | 29721 ft | 423 kts | 287° |
| 2026-04-25 11:37 | 42.93060 | 4.29833 | 29222 ft | 418 kts | 287° |
| 2026-04-25 11:37 | 42.93916 | 4.25998 | 28730 ft | 421 kts | 287° |
| 2026-04-25 11:37 | 42.94771 | 4.22163 | 28212 ft | 421 kts | 287° |
| 2026-04-25 11:38 | 42.95608 | 4.18402 | 27736 ft | 416 kts | 287° |
| 2026-04-25 11:38 | 42.96444 | 4.14639 | 27236 ft | 412 kts | 287° |
| 2026-04-25 11:38 | 42.97272 | 4.10906 | 26748 ft | 408 kts | 287° |
| 2026-04-25 11:38 | 42.98093 | 4.07196 | 26271 ft | 405 kts | 287° |
| 2026-04-25 11:39 | 42.98904 | 4.03523 | 25800 ft | 402 kts | 287° |
| 2026-04-25 11:39 | 42.99707 | 3.99886 | 25340 ft | 399 kts | 287° |
| 2026-04-25 11:39 | 43.00496 | 3.96304 | 24859 ft | 396 kts | 287° |
| 2026-04-25 11:39 | 43.01289 | 3.92693 | 24405 ft | 394 kts | 287° |
| 2026-04-25 11:40 | 43.02076 | 3.89108 | 23928 ft | 393 kts | 287° |
| 2026-04-25 11:40 | 43.02849 | 3.85580 | 23423 ft | 391 kts | 287° |
| 2026-04-25 11:40 | 43.03628 | 3.82019 | 22906 ft | 389 kts | 287° |
| 2026-04-25 11:40 | 43.04402 | 3.78476 | 22412 ft | 386 kts | 287° |
| 2026-04-25 11:41 | 43.05166 | 3.74971 | 21951 ft | 383 kts | 287° |
| 2026-04-25 11:41 | 43.05925 | 3.71486 | 21488 ft | 380 kts | 287° |
| 2026-04-25 11:41 | 43.06676 | 3.68030 | 21033 ft | 377 kts | 287° |
| 2026-04-25 11:41 | 43.07411 | 3.64642 | 20590 ft | 375 kts | 287° |
| 2026-04-25 11:42 | 43.08151 | 3.61222 | 20148 ft | 373 kts | 287° |
| 2026-04-25 11:42 | 43.08885 | 3.57831 | 19703 ft | 371 kts | 287° |
| 2026-04-25 11:42 | 43.09616 | 3.54445 | 19260 ft | 369 kts | 287° |
| 2026-04-25 11:42 | 43.10346 | 3.51061 | 18827 ft | 370 kts | 287° |
| 2026-04-25 11:43 | 43.11066 | 3.47714 | 18356 ft | 371 kts | 288° |
| 2026-04-25 11:43 | 43.11794 | 3.44333 | 17854 ft | 370 kts | 287° |
| 2026-04-25 11:43 | 43.12517 | 3.40961 | 17381 ft | 367 kts | 287° |
| 2026-04-25 11:43 | 43.13221 | 3.37602 | 16929 ft | 365 kts | 285° |
| 2026-04-25 11:44 | 43.13655 | 3.34192 | 16486 ft | 363 kts | 278° |
| 2026-04-25 11:44 | 43.13920 | 3.30755 | 16045 ft | 361 kts | 277° |
| 2026-04-25 11:44 | 43.14154 | 3.27381 | 15624 ft | 358 kts | 277° |
| 2026-04-25 11:44 | 43.14390 | 3.23997 | 15195 ft | 356 kts | 277° |
| 2026-04-25 11:45 | 43.14632 | 3.20639 | 14770 ft | 353 kts | 277° |
| 2026-04-25 11:45 | 43.14882 | 3.17291 | 14343 ft | 351 kts | 278° |
| 2026-04-25 11:45 | 43.15134 | 3.13971 | 13914 ft | 349 kts | 278° |
| 2026-04-25 11:45 | 43.15387 | 3.10672 | 13447 ft | 347 kts | 278° |
| 2026-04-25 11:46 | 43.15640 | 3.07393 | 12986 ft | 345 kts | 278° |
| 2026-04-25 11:46 | 43.15887 | 3.04176 | 12559 ft | 342 kts | 278° |
| 2026-04-25 11:46 | 43.16134 | 3.00950 | 12152 ft | 339 kts | 278° |
| 2026-04-25 11:46 | 43.16379 | 2.97745 | 11723 ft | 336 kts | 278° |
| 2026-04-25 11:47 | 43.16620 | 2.94582 | 11305 ft | 334 kts | 277° |
| 2026-04-25 11:47 | 43.16861 | 2.91409 | 10889 ft | 332 kts | 278° |
| 2026-04-25 11:47 | 43.17095 | 2.88290 | 10722 ft | 323 kts | 278° |
| 2026-04-25 11:47 | 43.17301 | 2.85305 | 10526 ft | 315 kts | 277° |
| 2026-04-25 11:48 | 43.17453 | 2.82347 | 10380 ft | 307 kts | 276° |
| 2026-04-25 11:48 | 43.17584 | 2.79471 | 10233 ft | 298 kts | 276° |
| 2026-04-25 11:48 | 43.17711 | 2.76681 | 10097 ft | 289 kts | 275° |
| 2026-04-25 11:48 | 43.17836 | 2.73978 | 10057 ft | 278 kts | 276° |
| 2026-04-25 11:49 | 43.17963 | 2.71313 | 9575 ft | 282 kts | 275° |
| 2026-04-25 11:49 | 43.18090 | 2.68642 | 9262 ft | 280 kts | 275° |
| 2026-04-25 11:49 | 43.18216 | 2.65987 | 8976 ft | 278 kts | 275° |
| 2026-04-25 11:49 | 43.18341 | 2.63357 | 8719 ft | 274 kts | 275° |
| 2026-04-25 11:50 | 43.18462 | 2.60791 | 8474 ft | 271 kts | 276° |
| 2026-04-25 11:50 | 43.18583 | 2.58215 | 8220 ft | 269 kts | 275° |
| 2026-04-25 11:50 | 43.18703 | 2.55664 | 7977 ft | 266 kts | 275° |
| 2026-04-25 11:50 | 43.18821 | 2.53158 | 7862 ft | 257 kts | 275° |
| 2026-04-25 11:51 | 43.18930 | 2.50772 | 7761 ft | 244 kts | 275° |
| 2026-04-25 11:51 | 43.19059 | 2.48538 | 7577 ft | 234 kts | 278° |
| 2026-04-25 11:51 | 43.19299 | 2.46387 | 7451 ft | 220 kts | 280° |
| 2026-04-25 11:51 | 43.19540 | 2.44389 | 7374 ft | 203 kts | 281° |
| 2026-04-25 11:52 | 43.19762 | 2.42522 | 7080 ft | 198 kts | 281° |
| 2026-04-25 11:52 | 43.19980 | 2.40680 | 6761 ft | 195 kts | 281° |
| 2026-04-25 11:52 | 43.20198 | 2.38828 | 6363 ft | 198 kts | 280° |
| 2026-04-25 11:52 | 43.20412 | 2.36970 | 6101 ft | 194 kts | 281° |
| 2026-04-25 11:53 | 43.20619 | 2.35164 | 5763 ft | 195 kts | 281° |
| 2026-04-25 11:53 | 43.20828 | 2.33337 | 5457 ft | 193 kts | 281° |
| 2026-04-25 11:53 | 43.21037 | 2.31505 | 5137 ft | 194 kts | 281° |
| 2026-04-25 11:53 | 43.21243 | 2.29690 | 4836 ft | 191 kts | 281° |
| 2026-04-25 11:54 | 43.21634 | 2.27989 | 4532 ft | 185 kts | 307° |
| 2026-04-25 11:54 | 43.22669 | 2.27022 | 4225 ft | 183 kts | 345° |
| 2026-04-25 11:54 | 43.24938 | 2.28228 | 3645 ft | 201 kts | 56° |
| 2026-04-25 11:55 | 43.25594 | 2.30007 | 3597 ft | 211 kts | 59° |
| 2026-04-25 11:55 | 43.26243 | 2.31748 | 3540 ft | 198 kts | 59° |
| 2026-04-25 11:55 | 43.26531 | 2.33530 | 3512 ft | 187 kts | 91° |
| 2026-04-25 11:55 | 43.26471 | 2.35324 | 3542 ft | 195 kts | 88° |
| 2026-04-25 11:56 | 43.26426 | 2.37220 | 3541 ft | 201 kts | 89° |
| 2026-04-25 11:56 | 43.26380 | 2.39161 | 3539 ft | 205 kts | 89° |
| 2026-04-25 11:56 | 43.26336 | 2.41100 | 3519 ft | 202 kts | 88° |
| 2026-04-25 11:56 | 43.26296 | 2.43005 | 3514 ft | 202 kts | 87° |
| 2026-04-25 11:57 | 43.26254 | 2.44928 | 3539 ft | 201 kts | 88° |
| 2026-04-25 11:57 | 43.26215 | 2.46844 | 3514 ft | 201 kts | 89° |
| 2026-04-25 11:57 | 43.26177 | 2.48757 | 3536 ft | 200 kts | 89° |
| 2026-04-25 11:57 | 43.26139 | 2.50636 | 3507 ft | 197 kts | 88° |
| 2026-04-25 11:58 | 43.26100 | 2.52505 | 3505 ft | 196 kts | 87° |
| 2026-04-25 11:58 | 43.26062 | 2.54397 | 3528 ft | 198 kts | 88° |
| 2026-04-25 11:58 | 43.26022 | 2.56266 | 3507 ft | 192 kts | 89° |
| 2026-04-25 11:58 | 43.25655 | 2.57997 | 3481 ft | 192 kts | 129° |
| 2026-04-25 11:59 | 43.24543 | 2.58985 | 3532 ft | 196 kts | 171° |
| 2026-04-25 11:59 | 43.23208 | 2.58964 | 3529 ft | 196 kts | 190° |
| 2026-04-25 11:59 | 43.21844 | 2.58758 | 3522 ft | 199 kts | 189° |
| 2026-04-25 12:00 | 43.19777 | 2.57008 | 3511 ft | 174 kts | 251° |
| 2026-04-25 12:00 | 43.19583 | 2.55423 | 3528 ft | 164 kts | 277° |
| 2026-04-25 12:00 | 43.19850 | 2.52343 | 3475 ft | 163 kts | 280° |
| 2026-04-25 12:01 | 43.19989 | 2.50767 | 3525 ft | 169 kts | 279° |
| 2026-04-25 12:01 | 43.20120 | 2.49164 | 3378 ft | 173 kts | 282° |
| 2026-04-25 12:01 | 43.20253 | 2.47531 | 3104 ft | 170 kts | 279° |
| 2026-04-25 12:01 | 43.20379 | 2.45937 | 2838 ft | 168 kts | 278° |
| 2026-04-25 12:02 | 43.20624 | 2.42839 | 2324 ft | 160 kts | 276° |
| 2026-04-25 12:02 | 43.20742 | 2.41345 | 2130 ft | 156 kts | 276° |
| 2026-04-25 12:02 | 43.20854 | 2.39931 | 1896 ft | 141 kts | 275° |
| 2026-04-25 12:03 | 43.20958 | 2.38634 | 1683 ft | 139 kts | 277° |
| 2026-04-25 12:03 | 43.21059 | 2.37362 | 1527 ft | 131 kts | 276° |
| 2026-04-25 12:03 | 43.21160 | 2.36132 | 1287 ft | 130 kts | 276° |
| 2026-04-25 12:03 | 43.21244 | 2.34882 | 982 ft | 132 kts | 277° |
| 2026-04-25 12:04 | 43.21359 | 2.33640 | 745 ft | 130 kts | 275° |
| 2026-04-25 12:04 | 43.21458 | 2.32421 | 571 ft | 128 kts | 275° |
| 2026-04-25 12:04 | 43.21551 | 2.31208 | 421 ft | 123 kts | 276° |
| 2026-04-25 12:04 | 43.21625 | 2.30308 | 424 ft | 64 kts | 276° |
| 2026-04-25 12:05 | 43.21669 | 2.29761 | 422 ft | 52 kts | 276° |
| 2026-04-25 12:05 | 43.21695 | 2.29517 | 422 ft | 14 kts | 303° |
| 2026-04-25 12:05 | 43.21702 | 2.29468 | 418 ft | 2 kts | 204° |
| 2026-04-25 12:05 | 43.21690 | 2.29486 | 415 ft | 4 kts | 103° |
| 2026-04-25 12:06 | 43.21685 | 2.29556 | 416 ft | 10 kts | 96° |
| 2026-04-25 12:06 | 43.21675 | 2.29686 | 418 ft | 17 kts | 97° |
| 2026-04-25 12:06 | 43.21660 | 2.29853 | 424 ft | 18 kts | 95° |
| 2026-04-25 12:06 | 43.21648 | 2.30021 | 425 ft | 17 kts | 96° |
| 2026-04-25 12:07 | 43.21635 | 2.30182 | 421 ft | 17 kts | 96° |
| 2026-04-25 12:07 | 43.21623 | 2.30338 | 424 ft | 16 kts | 96° |
| 2026-04-25 12:07 | 43.21601 | 2.30474 | 422 ft | 11 kts | 147° |
| 2026-04-25 12:07 | 43.21526 | 2.30473 | 422 ft | 11 kts | 185° |
| 2026-04-25 12:08 | 43.21464 | 2.30480 | 417 ft | 7 kts | 135° |
| 2026-04-25 12:08 | 43.21453 | 2.30545 | 418 ft | 7 kts | 97° |
| 2026-04-25 12:08 | 43.21433 | 2.30577 | 414 ft | 4 kts | 173° |
| 2026-04-25 12:08 | 43.21406 | 2.30570 | 416 ft | 4 kts | 191° |
| 2026-04-25 12:09 | 43.21396 | 2.30552 | 414 ft | 1 kts | 293° |
| 2026-04-25 12:09 | 43.21405 | 2.30543 | 420 ft | 2 kts | 325° |
| 2026-04-25 12:09 | 43.21408 | 2.30541 | 420 ft | 0 kts | 324° |